Latest Weather Observations for Brisbane

IDQ60801

Issued at 10:05 am EST Thursday 2 October 2014 (issued every 30 minutes, with the page automatically refreshed every 10 minutes)

About weather observations | Map of weather stations | Latest weather observations for QLD | Other Formats
Station Details ID: 040913 Name: BRISBANE Lat: -27.48 Lon: 153.04 Height: 8.13 m
Data from the previous 72 hours. | See also: Recent months at Brisbane
Date/Time
EST
Temp
°C
App
Temp
°C
Dew
Point
Rel
Hum
%
Delta-T
°C
Wind Press
QNH
hPa
Press
MSL
hPa
Rain
since 9 am
mm
Dir
 
Spd
km/h
Gust
km/h
Spd
kts
Gust
kts
02/10:00am 21.6 20.2 11.0 51 5.8 ESE 9 17 5 9 1022.2 1022.2 0.0
02/09:30am 21.1 19.6 10.6 51 5.7 E 9 19 5 10 1022.2 1022.2 0.0
02/09:00am 20.3 19.3 11.0 55 5.1 E 7 11 4 6 1022.3 1022.3 0.0
02/08:30am 20.3 19.1 10.4 53 5.4 SE 7 17 4 9 1022.3 1022.3 0.0
02/08:00am 20.1 19.1 11.1 56 4.9 ESE 7 17 4 9 1022.3 1022.3 0.0
02/07:30am 20.2 19.3 10.6 54 5.2 SSE 6 11 3 6 1022.1 1022.1 0.0
02/07:00am 18.7 17.6 9.8 56 4.7 SE 6 11 3 6 1021.9 1021.9 0.0
02/06:30am 18.2 17.0 9.5 57 4.6 SSE 6 7 3 4 1021.6 1021.6 0.0
02/06:00am 17.9 16.7 9.5 58 4.4 SSE 6 9 3 5 1021.2 1021.2 0.0
02/05:30am 17.7 16.8 9.3 58 4.4 SSE 4 7 2 4 1020.9 1020.9 0.0
02/05:00am 17.9 16.7 9.5 58 4.4 SSE 6 13 3 7 1020.5 1020.5 0.0
02/04:30am 18.0 16.6 9.4 57 4.5 SE 7 15 4 8 1020.0 1020.0 0.0
02/04:00am 18.2 16.4 9.5 57 4.6 SE 9 17 5 9 1019.7 1019.7 0.0
02/03:30am 18.3 16.9 9.4 56 4.7 SE 7 19 4 10 1019.7 1019.7 0.0
02/03:00am 18.6 16.9 9.7 56 4.7 SE 9 17 5 9 1019.6 1019.6 0.0
02/02:30am 18.8 17.1 9.8 56 4.8 SE 9 19 5 10 1019.7 1019.7 0.0
02/02:00am 18.9 16.8 9.9 56 4.8 SSE 11 20 6 11 1019.7 1019.7 0.0
02/01:30am 19.0 17.0 10.0 56 4.8 SE 11 26 6 14 1019.7 1019.7 0.0
02/01:00am 19.1 16.8 10.4 57 4.7 SSE 13 22 7 12 1019.9 1019.9 0.0
02/12:30am 19.1 16.6 10.9 59 4.4 SE 15 33 8 18 1020.0 1020.0 0.0
02/12:00am 19.2 16.8 11.3 60 4.3 SE 15 28 8 15 1020.2 1020.2 0.0
 
Date/Time
EST
Temp
°C
App
Temp
°C
Dew
Point
Rel
Hum
%
Delta-T
°C
Wind Press
QNH
hPa
Press
MSL
hPa
Rain
since 9 am
mm
Dir
 
Spd
km/h
Gust
km/h
Spd
kts
Gust
kts
01/11:30pm 19.3 17.7 11.6 61 4.2 SE 11 26 6 14 1020.0 1020.0 0.0
01/11:00pm 19.5 18.4 12.0 62 4.2 SE 9 17 5 9 1019.8 1019.8 0.0
01/10:30pm 19.8 17.0 12.6 63 4.0 SE 19 37 10 20 1019.5 1019.5 0.0
01/10:00pm 20.1 17.7 12.6 62 4.2 SE 17 30 9 16 1019.1 1019.1 0.0
01/09:30pm 20.1 19.2 13.6 66 3.7 SE 11 26 6 14 1018.7 1018.7 0.0
01/09:00pm 20.4 19.9 15.0 71 3.2 SE 11 20 6 11 1018.1 1018.1 0.0
01/08:30pm 20.6 19.7 14.9 70 3.3 SE 13 30 7 16 1017.6 1017.6 0.0
01/08:00pm 20.9 18.9 15.0 69 3.5 SE 19 33 10 18 1017.0 1017.0 0.0
01/07:30pm 21.4 20.6 16.1 72 3.2 SE 15 32 8 17 1016.3 1016.3 0.0
01/07:00pm 22.0 21.4 16.7 72 3.2 ESE 15 30 8 16 1015.6 1015.6 0.0
01/06:30pm 23.1 24.2 18.0 73 3.2 ESE 9 13 5 7 1014.4 1014.4 0.0
01/06:00pm 23.0 24.8 18.3 75 2.9 ENE 6 9 3 5 1012.8 1012.8 0.0
01/05:30pm 23.5 25.1 18.2 72 3.3 ENE 7 13 4 7 1012.4 1012.4 0.0
01/05:00pm 24.5 25.4 17.5 65 4.4 NE 9 17 5 9 1012.0 1012.0 0.0
01/04:30pm 25.9 26.4 17.5 59 5.3 NE 11 17 6 9 1011.8 1011.8 0.0
01/04:00pm 26.3 26.6 17.1 57 5.7 NE 11 20 6 11 1011.7 1011.7 0.0
01/03:30pm 27.4 28.1 17.0 53 6.5 NE 9 17 5 9 1011.7 1011.7 0.0
01/03:00pm 27.5 27.8 17.1 53 6.5 NE 11 24 6 13 1011.8 1011.8 0.0
01/02:30pm 27.3 27.2 16.9 53 6.5 ENE 13 19 7 10 1012.0 1012.0 0.0
01/02:00pm 27.4 26.6 16.1 50 7.0 ENE 15 24 8 13 1012.2 1012.2 0.0
01/01:30pm 28.0 27.6 16.3 49 7.2 ENE 13 20 7 11 1012.5 1012.5 0.0
01/01:00pm 28.6 28.3 16.5 48 7.5 ENE 13 20 7 11 1013.0 1013.0 0.0
01/12:30pm 29.4 29.4 16.2 44 8.2 ENE 11 17 6 9 1013.6 1013.6 0.0
01/12:00pm 29.5 30.4 16.7 46 8.0 ENE 7 15 4 8 1014.1 1014.1 0.0
01/11:30am 30.4 29.7 11.4 31 11.0 W 6 17 3 9 1014.7 1014.7 0.0
01/11:00am 29.5 27.9 11.5 33 10.4 WNW 11 17 6 9 1015.3 1015.3 0.0
01/10:30am 28.6 27.7 12.5 37 9.4 WNW 9 19 5 10 1015.8 1015.8 0.0
01/10:00am 27.3 25.9 13.3 42 8.2 WNW 13 20 7 11 1016.5 1016.5 0.0
01/09:30am 25.8 26.4 14.3 49 6.8 WNW 4 9 2 5 1017.1 1017.1 0.0
01/09:00am 23.4 23.5 13.8 54 5.6 NW 6 9 3 5 1017.6 1017.6 0.0
01/08:30am 22.4 23.3 14.0 59 4.9 N 2 4 1 2 1017.8 1017.8 0.0
01/08:00am 20.9 21.3 13.8 64 4.1 W 4 7 2 4 1017.9 1017.9 0.0
01/07:30am 19.9 20.0 14.0 69 3.4 NE 6 9 3 5 1017.4 1017.4 0.0
01/07:00am 18.7 19.1 13.8 73 2.8 NNW 4 7 2 4 1017.5 1017.5 0.0
01/06:30am 17.6 18.8 13.7 78 2.2 CALM 0 0 0 0 1017.3 1017.3 0.0
01/06:00am 16.1 17.2 13.6 85 1.4 CALM 0 0 0 0 1016.9 1016.9 0.0
01/05:30am 16.3 17.2 14.0 86 1.3 N 2 6 1 3 1016.7 1016.7 0.0
01/05:00am 16.1 17.3 13.9 87 1.2 CALM 0 4 0 2 1016.4 1016.4 0.0
01/04:30am 16.8 17.5 14.4 86 1.4 N 4 7 2 4 1016.3 1016.3 0.0
01/04:00am 16.9 18.0 14.5 86 1.4 N 2 4 1 2 1016.1 1016.1 0.0
01/03:30am 17.2 18.8 14.8 86 1.4 CALM 0 4 0 2 1016.1 1016.1 0.0
01/03:00am 17.5 18.7 15.0 85 1.4 NNE 2 6 1 3 1016.1 1016.1 0.0
01/02:30am 17.5 18.7 14.8 84 1.6 NNW 2 4 1 2 1016.3 1016.3 0.0
01/02:00am 18.0 18.8 14.9 82 1.8 N 4 7 2 4 1016.7 1016.7 0.0
01/01:30am 18.2 19.2 15.3 83 1.7 N 4 7 2 4 1016.7 1016.7 0.0
01/01:00am 18.2 19.5 15.1 82 1.8 N 2 6 1 3 1017.1 1017.1 0.0
01/12:30am 18.6 19.6 15.3 81 1.9 N 4 7 2 4 1017.4 1017.4 0.0
01/12:00am 18.8 19.8 15.3 80 2.1 NNW 4 6 2 3 1017.7 1017.7 0.0
 
Date/Time
EST
Temp
°C
App
Temp
°C
Dew
Point
Rel
Hum
%
Delta-T
°C
Wind Press
QNH
hPa
Press
MSL
hPa
Rain
since 9 am
mm
Dir
 
Spd
km/h
Gust
km/h
Spd
kts
Gust
kts
30/11:30pm 19.3 20.5 15.8 80 2.1 N 4 9 2 5 1017.9 1017.9 0.0
30/11:00pm 19.4 21.0 15.9 80 2.1 NE 2 6 1 3 1018.0 1018.0 0.0
30/10:30pm 19.6 20.9 16.1 80 2.1 N 4 7 2 4 1017.9 1017.9 0.0
30/10:00pm 19.7 20.9 16.0 79 2.2 NE 4 7 2 4 1018.0 1018.0 0.0
30/09:30pm 19.9 21.4 15.7 77 2.5 NNE 2 7 1 4 1018.3 1018.3 0.0
30/09:00pm 20.2 21.4 15.8 76 2.6 N 4 9 2 5 1018.4 1018.4 0.0
30/08:30pm 20.3 21.4 15.7 75 2.7 N 4 9 2 5 1018.3 1018.3 0.0
30/08:00pm 20.7 21.5 15.9 74 2.9 NNE 6 13 3 7 1018.1 1018.1 0.0
30/07:30pm 20.9 21.5 15.9 73 3.0 NNE 7 20 4 11 1017.9 1017.9 0.0
30/07:00pm 21.2 21.4 15.7 71 3.3 N 9 20 5 11 1017.7 1017.7 0.0
30/06:30pm 21.3 21.9 15.8 71 3.3 NNE 7 13 4 7 1017.4 1017.4 0.0
30/06:00pm 21.6 22.2 15.9 70 3.4 NE 7 17 4 9 1017.3 1017.3 0.0
30/05:30pm 22.2 22.2 15.3 65 4.1 NE 9 19 5 10 1017.1 1017.1 0.0
30/05:00pm 22.7 21.9 15.0 61 4.6 NE 13 22 7 12 1016.8 1016.8 0.0
30/04:30pm 23.5 23.5 15.3 60 4.9 NNE 9 20 5 11 1016.9 1016.9 0.0
30/04:00pm 23.8 23.3 15.0 57 5.2 NNE 11 28 6 15 1016.8 1016.8 0.0
30/03:30pm 24.8 25.1 14.9 54 5.9 N 7 19 4 10 1016.7 1016.7 0.0
30/03:00pm 25.1 25.0 14.9 53 6.1 NNE 9 17 5 9 1016.9 1016.9 0.0
30/02:30pm 25.2 24.6 14.6 51 6.3 NNE 11 22 6 12 1017.1 1017.1 0.0
30/02:00pm 25.0 23.6 14.5 52 6.2 ENE 15 24 8 13 1017.2 1017.2 0.0
30/01:30pm 25.3 24.4 13.8 49 6.8 NE 11 19 6 10 1017.5 1017.5 0.0
30/01:00pm 25.4 25.0 14.2 50 6.6 ENE 9 19 5 10 1017.9 1017.9 0.0
30/12:30pm 25.6 24.7 13.8 48 7.0 ENE 11 17 6 9 1018.3 1018.3 0.0
30/12:00pm 25.4 24.1 12.6 45 7.4 ENE 11 19 6 10 1018.8 1018.8 0.0
30/11:30am 25.3 23.7 11.5 42 7.8 ENE 11 19 6 10 1019.2 1019.2 0.0
30/11:00am 25.4 24.3 11.9 43 7.7 ENE 9 15 5 8 1019.5 1019.5 0.0
30/10:30am 25.8 24.8 10.4 38 8.6 N 6 15 3 8 1019.9 1019.9 0.0
30/10:00am 24.5 23.1 8.9 37 8.4 NNW 6 9 3 5 1020.4 1020.4 0.0
30/09:30am 23.9 23.2 11.3 45 7.1 N 6 9 3 5 1020.8 1020.8 0.0
30/09:00am 22.6 22.6 12.5 53 5.7 NNE 4 6 2 3 1021.0 1021.0 0.0
30/08:30am 21.4 21.7 13.3 60 4.6 NE 4 7 2 4 1021.1 1021.1 0.0
30/08:00am 20.2 21.5 14.1 68 3.5 CALM 0 2 0 1 1021.0 1021.0 0.0
30/07:30am 19.4 20.6 13.8 70 3.2 CALM 0 4 0 2 1021.0 1021.0 0.0
30/07:00am 17.2 18.2 13.1 77 2.3 CALM 0 2 0 1 1020.9 1020.9 0.0
30/06:30am 16.2 16.7 12.9 81 1.8 SW 2 4 1 2 1020.7 1020.7 0.0
30/06:00am 14.8 15.4 13.0 89 1.0 SW 2 6 1 3 1020.3 1020.3 0.0
30/05:30am 13.9 14.6 12.3 90 0.9 CALM 0 4 0 2 1020.0 1020.0 0.0
30/05:00am 14.2 14.9 12.1 87 1.1 CALM 0 2 0 1 1019.7 1019.7 0.0
30/04:30am 14.9 15.3 12.6 86 1.3 SW 2 4 1 2 1019.5 1019.5 0.0
30/04:00am 15.0 15.2 13.2 89 1.0 WSW 4 6 2 3 1019.1 1019.1 0.0
30/03:30am 13.9 14.7 12.6 92 0.7 CALM 0 0 0 0 1018.9 1018.9 0.0
30/03:00am 14.1 15.0 12.8 92 0.7 CALM 0 0 0 0 1018.9 1018.9 0.0
30/02:30am 14.1 14.9 12.5 90 0.9 CALM 0 0 0 0 1019.1 1019.1 0.0
30/02:00am 14.2 15.0 12.4 89 1.0 CALM 0 0 0 0 1019.1 1019.1 0.0
30/01:30am 14.6 15.5 12.8 89 1.0 CALM 0 0 0 0 1019.3 1019.3 0.0
30/01:00am 15.0 15.8 12.5 85 1.4 CALM 0 0 0 0 1019.3 1019.3 0.0
30/12:30am 15.9 16.7 12.5 80 1.9 CALM 0 0 0 0 1019.5 1019.5 0.0
30/12:00am 17.2 17.8 13.1 77 2.3 NE 2 6 1 3 1019.6 1019.6 0.0
 
Date/Time
EST
Temp
°C
App
Temp
°C
Dew
Point
Rel
Hum
%
Delta-T
°C
Wind Press
QNH
hPa
Press
MSL
hPa
Rain
since 9 am
mm
Dir
 
Spd
km/h
Gust
km/h
Spd
kts
Gust
kts
29/11:30pm 17.7 18.6 12.8 73 2.7 CALM 0 4 0 2 1019.6 1019.6 0.0
29/11:00pm 18.3 18.9 13.2 72 2.9 N 2 7 1 4 1019.7 1019.7 0.0
29/10:30pm 18.4 18.6 13.1 71 3.0 N 4 13 2 7 1019.7 1019.7 0.0
29/10:00pm 18.8 18.7 13.2 70 3.2 N 6 13 3 7 1019.7 1019.7 0.0
29/09:30pm 18.9 18.8 13.3 70 3.2 N 6 13 3 7 1019.6 1019.6 0.0
29/09:00pm 19.4 19.1 13.3 68 3.5 N 7 17 4 9 1019.6 1019.6 0.0
29/08:30pm 19.6 19.4 13.5 68 3.5 NNW 7 13 4 7 1019.5 1019.5 0.0
29/08:00pm 19.7 19.6 13.4 67 3.6 N 6 13 3 7 1019.6 1019.6 0.0
29/07:30pm 19.5 19.7 13.2 67 3.6 N 4 7 2 4 1019.4 1019.4 0.0
29/07:00pm 19.9 19.7 13.1 65 3.8 NNE 6 13 3 7 1019.1 1019.1 0.0
29/06:30pm 20.3 20.1 13.5 65 3.9 NE 7 15 4 8 1018.8 1018.8 0.0
29/06:00pm 20.5 20.3 13.5 64 4.0 NNE 7 20 4 11 1018.5 1018.5 0.0
29/05:30pm 20.9 20.3 13.4 62 4.3 NNE 9 20 5 11 1018.0 1018.0 0.0
29/05:00pm 21.6 20.6 13.5 60 4.7 NNE 11 20 6 11 1017.7 1017.7 0.0
29/04:30pm 22.5 21.6 12.7 54 5.6 NNE 9 20 5 11 1017.6 1017.6 0.0
29/04:00pm 22.9 21.8 13.1 54 5.6 NE 11 19 6 10 1017.4 1017.4 0.0
29/03:30pm 23.4 22.4 13.3 53 5.8 NNE 11 17 6 9 1017.4 1017.4 0.0
29/03:00pm 23.7 22.7 13.3 52 6.0 ENE 11 20 6 11 1017.3 1017.3 0.0
29/02:30pm 24.0 22.8 12.9 50 6.4 NE 11 17 6 9 1017.4 1017.4 0.0
29/02:00pm 23.9 22.6 13.7 53 5.9 ENE 13 22 7 12 1017.5 1017.5 0.0
29/01:30pm 23.9 22.6 13.7 53 6.0 NE 13 24 7 13 1017.8 1017.8 0.0
29/01:00pm 24.1 23.3 13.9 53 6.0 NE 11 19 6 10 1018.2 1018.2 0.0
29/12:30pm 23.9 22.7 12.8 49 6.4 NE 11 24 6 13 1018.6 1018.6 0.0
29/12:00pm 24.0 23.6 12.9 50 6.4 NE 7 15 4 8 1019.0 1019.0 0.0
29/11:30am 23.7 22.7 13.3 52 6.0 NE 11 20 6 11 1019.4 1019.4 0.0
29/11:00am 24.2 24.2 13.7 52 6.1 N 6 11 3 6 1019.9 1019.9 0.0
29/10:30am 23.3 23.0 12.6 51 6.1 ENE 6 11 3 6 1020.5 1020.5 0.0

Other Formats:

Comma delimited format used in spreadsheet applications
http://www.bom.gov.au/fwo/IDQ60801/IDQ60801.94576.axf

JavaScript Object Notation format (JSON) in row-major order
http://www.bom.gov.au/fwo/IDQ60801/IDQ60801.94576.json